Thunder radar more information blitzortung!


Radar de pluja more information rain snow radar


Visita la nostra xarxa de llocs de meteo:

Template documentation
and downloads

And another site



No particular awareness of the weather is required.    There are no Weather-warnings

Pagina Historial Weather Underground text

Diari Resum May 22, 2016 Unitats:  Mètric    Imperial   Tant
« Previous Dia
SegĂźent Dia »
Diari Setmana Mensual Anual Personalitzada
  Maxima: Minima: Media:
Temperatura: -17.8 °C -11.7 °C -7.9 °C
Punt de rosada: -17.8 °C -16.5 °C -10.8 °C
Humitat: Humidity % 53 % 72 %
Wind Speed: 0 km/h 0 km/h 13.7 km/h
RĂ fegues de vent: 0 km/h - -
Vent:- - SSW
Pression baro: 0 hPa 34256.2 hPa -
Precipitacions: 160.02 mm    
Historical Graphs
 
 
Dades de taula per May 22, 2016
Temps Temperatura Punt de rosada Pression baro Vent Wind Speed RĂ fegues de vent Humitat Rainfall Rate (Hourly)
-17.8 °C -17.8 °C 0 hPa Calm     Humidity % 0 mm
00:00 -9.1 °C -11.6 °C 34428.8 hPa Calm     75 % 0 mm
00:05 -9.2 °C -11.7 °C 34462.7 hPa Calm     75 % 0 mm
00:10 -10.5 °C -12.2 °C 34395 hPa Calm   2.6 km/h 82 % 0 mm
00:20 -10.5 °C -12.1 °C 34361.1 hPa Calm   2.6 km/h 83 % 0 mm
00:30 -10.5 °C -12.1 °C 34361.1 hPa Calm     83 % 0 mm
00:40 -10.4 °C -12 °C 34361.1 hPa Calm   2.6 km/h 83 % 0 mm
00:50 -10.4 °C -12 °C 34361.1 hPa Calm   2.6 km/h 83 % 0 mm
01:00 -10.4 °C -11.9 °C 34361.1 hPa Calm   5.1 km/h 83 % 0 mm
01:10 -10.4 °C -12 °C 34361.1 hPa Calm     83 % 0 mm
01:20 -10.5 °C -12.1 °C 34361.1 hPa ENE 2.6 km/h 2.6 km/h 83 % 0 mm
01:30 -10.6 °C -12.1 °C 34361.1 hPa Calm     83 % 0 mm
01:40 -10.6 °C -12.2 °C 34361.1 hPa ENE 2.6 km/h 5.1 km/h 83 % 0 mm
01:50 -10.7 °C -12.2 °C 34361.1 hPa Calm   5.1 km/h 83 % 0 mm
02:00 -10.7 °C -12.3 °C 34361.1 hPa Calm   5.1 km/h 83 % 0 mm
02:10 -10.7 °C -12.3 °C 34361.1 hPa Calm   5.1 km/h 83 % 0 mm
02:30 -10.7 °C -12.2 °C 34361.1 hPa WSW 2.6 km/h 5.1 km/h 83 % 0 mm
02:40 -10.6 °C -12.1 °C 34361.1 hPa Calm   2.6 km/h 84 % 0 mm
02:50 -10.4 °C -11.9 °C 34361.1 hPa SW 2.6 km/h 5.1 km/h 84 % 0 mm
03:00 -10.2 °C -11.8 °C 34361.1 hPa SSW 5.1 km/h 5.1 km/h 83 % 0 mm
03:10 -10.1 °C -11.7 °C 34361.1 hPa SE 2.6 km/h 2.6 km/h 83 % 0 mm
03:20 -9.9 °C -11.5 °C 34361.1 hPa Calm   2.6 km/h 83 % 0 mm
03:30 -9.5 °C -11.3 °C 34361.1 hPa Calm   10.3 km/h 81 % 0 mm
03:40 -9.2 °C -11.2 °C 34361.1 hPa ENE 2.6 km/h 5.1 km/h 80 % 0 mm
03:50 -9.1 °C -11.1 °C 34361.1 hPa ENE 2.6 km/h 5.1 km/h 79 % 0 mm
04:00 -8.8 °C -10.9 °C 34361.1 hPa ENE 2.6 km/h 5.1 km/h 78 % 0 mm
04:10 -8.6 °C -10.7 °C 34361.1 hPa North 5.1 km/h 7.7 km/h 78 % 0 mm
04:20 -8 °C -10.3 °C 34395 hPa SSW 2.6 km/h 10.3 km/h 77 % 0 mm
04:30 -7.8 °C -10.3 °C 34395 hPa South 2.6 km/h 7.7 km/h 75 % 0 mm
04:40 -7.7 °C -10.3 °C 34361.1 hPa Calm   7.7 km/h 74 % 0 mm
04:50 -7.4 °C -10.2 °C 34361.1 hPa South 2.6 km/h 7.7 km/h 73 % 0 mm
05:00 -7.2 °C -10.2 °C 34361.1 hPa SW 5.1 km/h 10.3 km/h 71 % 0 mm
05:10 -6.8 °C -10.2 °C 34361.1 hPa SSW 5.1 km/h 20.8 km/h 68 % 0 mm
05:20 -7 °C -10.7 °C 34361.1 hPa SW 7.7 km/h 10.3 km/h 65 % 0 mm
05:30 -7 °C -10.6 °C 34361.1 hPa SW 5.1 km/h 10.3 km/h 66 % 0 mm
05:40 -6.8 °C -10.8 °C 34361.1 hPa SW 12.9 km/h 12.9 km/h 63 % 0 mm
05:50 -7 °C -10.9 °C 34361.1 hPa SW 5.1 km/h 20.8 km/h 64 % 0 mm
06:00 -6.9 °C -10.8 °C 34361.1 hPa SW 5.1 km/h 12.9 km/h 64 % 0 mm
06:10 -6.5 °C -10.8 °C 34361.1 hPa SW 12.9 km/h 15.6 km/h 61 % 0 mm
11:19 -6.4 °C -10.6 °C 34327.3 hPa SW 14 km/h 14 km/h 62 % 0 mm
11:24 -6.4 °C -11.1 °C 34327.3 hPa SW 26.9 km/h 26.9 km/h 59 % 0 mm
11:29 -6.3 °C -10.9 °C 34327.3 hPa WSW 26.9 km/h 26.9 km/h 59 % 0 mm
11:34 -6.4 °C -11 °C 34327.3 hPa SSW 15 km/h 15 km/h 59 % 0 mm
11:40 -6.5 °C -11.1 °C 34327.3 hPa WSW 15 km/h 15 km/h 59 % 0 mm
11:45 -6.6 °C -11.1 °C 34327.3 hPa SSW 11.9 km/h 12.7 km/h 60 % 0 mm
11:50 -6.7 °C -11.1 °C 34327.3 hPa South 15 km/h 15 km/h 60 % 0 mm
11:55 -6.8 °C -10.9 °C 34327.3 hPa SSW 20.3 km/h 20.3 km/h 62 % 0 mm
12:00 -6.8 °C -10.9 °C 34327.3 hPa WSW 20.9 km/h 20.9 km/h 62 % 0 mm
12:10 -6.9 °C -10.9 °C 34361.1 hPa SW 15 km/h 15 km/h 63 % 0 mm
12:15 -7 °C -10.9 °C 34361.1 hPa SW 17.9 km/h 17.9 km/h 64 % 0 mm
12:20 -6.9 °C -10.8 °C 34361.1 hPa WSW 18.3 km/h 18.3 km/h 64 % 0 mm
12:25 -6.9 °C -10.8 °C 34361.1 hPa SW 20.9 km/h 20.9 km/h 64 % 0 mm
12:30 -6.7 °C -10.6 °C 34361.1 hPa SW 15 km/h 15 km/h 64 % 0 mm
12:35 -6.8 °C -10.7 °C 34327.3 hPa WSW 15 km/h 15 km/h 64 % 0 mm
12:40 -6.8 °C -10.7 °C 34327.3 hPa WSW 17.9 km/h 17.9 km/h 64 % 0 mm
12:45 -6.6 °C -10.8 °C 34327.3 hPa WSW 11.9 km/h 11.9 km/h 62 % 0 mm
12:50 -6.2 °C -10.4 °C 34327.3 hPa SW 16.1 km/h 16.1 km/h 62 % 0 mm
12:55 -6.2 °C -10.4 °C 34327.3 hPa SSW 15 km/h 15 km/h 62 % 0 mm
13:00 -6.4 °C -10.8 °C 34327.3 hPa SW 20.9 km/h 20.9 km/h 61 % 0 mm
13:05 -6.3 °C -10.6 °C 34293.4 hPa SSW 11.9 km/h 11.9 km/h 61 % 0 mm
13:10 -6.4 °C -10.7 °C 34293.4 hPa SW 20.9 km/h 20.9 km/h 61 % 0 mm
13:15 -6.5 °C -10.8 °C 34293.4 hPa WSW 20.9 km/h 20.9 km/h 61 % 0 mm
13:20 -6.2 °C -10.5 °C 34327.3 hPa WSW 20.3 km/h 20.3 km/h 61 % 0 mm
13:25 -6.2 °C -10.6 °C 34327.3 hPa SW 29.8 km/h 29.8 km/h 61 % 0 mm
13:30 -6.1 °C -10.4 °C 34327.3 hPa WSW 17.9 km/h 17.9 km/h 61 % 0 mm
13:35 -5.8 °C -10.3 °C 34327.3 hPa SW 29.8 km/h 29.8 km/h 60 % 0 mm
13:40 -5.7 °C -10.3 °C 34327.3 hPa WSW 20.9 km/h 20.9 km/h 59 % 0 mm
13:45 -5.5 °C -10.3 °C 34327.3 hPa SW 9.8 km/h 14 km/h 58 % 0 mm
13:50 -5.4 °C -10.2 °C 34293.4 hPa SW 15 km/h 15 km/h 58 % 0 mm
13:55 -5.2 °C -10.2 °C 34293.4 hPa SW 17.9 km/h 17.9 km/h 57 % 0 mm
14:00 -5.1 °C -10.2 °C 34293.4 hPa SW 23.8 km/h 23.8 km/h 56 % 0 mm
14:05 -4.9 °C -10.1 °C 34256.2 hPa WSW 20.3 km/h 20.3 km/h 56 % 0 mm
14:10 -4.9 °C -10.2 °C 34256.2 hPa WSW 17.9 km/h 17.9 km/h 55 % 0 mm
14:15 -4.8 °C -10.1 °C 34256.2 hPa SSE 18.3 km/h 18.3 km/h 55 % 0 mm
14:20 -4.7 °C -9.9 °C 34256.2 hPa SW 6.8 km/h 6.8 km/h 55 % 0 mm
14:25 -4.8 °C -10.1 °C 34256.2 hPa WSW 20.9 km/h 20.9 km/h 55 % 0 mm
14:30 -4.6 °C -10.1 °C 34256.2 hPa WSW 17.9 km/h 17.9 km/h 54 % 0 mm
14:35 -4.6 °C -10.1 °C 34256.2 hPa South 20.9 km/h 20.9 km/h 54 % 0 mm
14:40 -4.5 °C -10 °C 34256.2 hPa SW 11.9 km/h 11.9 km/h 54 % 0 mm
14:45 -4.4 °C -10.1 °C 34256.2 hPa SSW 11.9 km/h 11.9 km/h 53 % 0 mm
14:50 -4.6 °C -10.1 °C 34256.2 hPa SW 26.9 km/h 26.9 km/h 54 % 0 mm
14:55 -4.6 °C -10.1 °C 34256.2 hPa WSW 27.2 km/h 27.2 km/h 54 % 0 mm
15:05 -4.4 °C -9.9 °C 34256.2 hPa South 9 km/h 9 km/h 54 % 0 mm
15:10 -4.2 °C -9.7 °C 34256.2 hPa West 15.3 km/h 15.3 km/h 54 % 0 mm
15:15 -4.2 °C -9.8 °C 34256.2 hPa SW 17.9 km/h 17.9 km/h 53 % 0 mm
15:20 -4.4 °C -10.1 °C 34256.2 hPa South 32.8 km/h 32.8 km/h 53 % 0 mm
15:25 -4.7 °C -10.2 °C 34256.2 hPa WSW 35.7 km/h 35.7 km/h 54 % 0 mm
15:30 -4.7 °C -10.1 °C 34256.2 hPa SW 23.8 km/h 23.8 km/h 55 % 0 mm
15:35 -4.9 °C -10.1 °C 34256.2 hPa SSW 15.6 km/h 15.6 km/h 56 % 0 mm
15:40 -5 °C -10.2 °C 34256.2 hPa WSW 23.8 km/h 23.8 km/h 56 % 0 mm
15:45 -5.2 °C -10.2 °C 34256.2 hPa SW 25.9 km/h 25.9 km/h 57 % 0 mm
15:50 -5.5 °C -10.3 °C 34256.2 hPa SW 15.6 km/h 33.6 km/h 58 % 0 mm
15:55 -5.7 °C -10.2 °C 34256.2 hPa SW 32.8 km/h 32.8 km/h 60 % 0 mm
16:00 -5.8 °C -10.3 °C 34256.2 hPa SW 23.8 km/h 23.8 km/h 60 % 0 mm
16:05 -6.1 °C -10.2 °C 34256.2 hPa WSW 26.9 km/h 26.9 km/h 62 % 0 mm
16:10 -6.1 °C -10.3 °C 34256.2 hPa SW 20.9 km/h 20.9 km/h 62 % 0 mm
16:15 -6.2 °C -10.3 °C 34256.2 hPa WSW 17.9 km/h 17.9 km/h 63 % 0 mm
16:20 -6.3 °C -10.3 °C 34256.2 hPa SW 7.7 km/h 20.8 km/h 63 % 0 mm
16:25 -6.3 °C -10.2 °C 34256.2 hPa SW 14 km/h 14 km/h 64 % 0 mm
16:30 -6.4 °C -10.2 °C 34256.2 hPa WSW 29.8 km/h 29.8 km/h 65 % 0 mm
16:35 -6.6 °C -10.3 °C 34256.2 hPa SW 18.2 km/h 23.3 km/h 65 % 0 mm
16:40 -6.6 °C -10.2 °C 34256.2 hPa SW 26.9 km/h 26.9 km/h 66 % 0 mm
16:45 -6.7 °C -10.1 °C 34256.2 hPa WSW 25.9 km/h 25.9 km/h 68 % 0 mm
16:50 -6.9 °C -10 °C 34327.3 hPa SSW 32.8 km/h 32.8 km/h 70 % 0 mm
16:55 -7.1 °C -9.9 °C 34327.3 hPa SSW 32.8 km/h 32.8 km/h 73 % 0 mm
17:00 -7.7 °C -9.7 °C 34327.3 hPa SSW 20.9 km/h 20.9 km/h 79 % 0 mm
17:05 -7.9 °C -9.9 °C 34327.3 hPa West 20.9 km/h 20.9 km/h 80 % 0 mm
17:10 -8.1 °C -10 °C 34327.3 hPa SW 9.3 km/h 9.3 km/h 80 % 0 mm
17:15 -8.1 °C -10.1 °C 34327.3 hPa SW 5.1 km/h 10.3 km/h 80 % 0 mm
17:20 -8.1 °C -9.8 °C 34327.3 hPa SW 5.1 km/h 5.1 km/h 82 % 0 mm
17:25 -7.9 °C -9.5 °C 34327.3 hPa SW 9.3 km/h 9.3 km/h 84 % 0 mm
17:30 -7.9 °C -9.3 °C 34327.3 hPa West 16.1 km/h 16.1 km/h 86 % 104.14 mm
17:35 -7.9 °C -9.1 °C 34327.3 hPa SW 7.7 km/h 15.6 km/h 87 % 0 mm
17:40 -8 °C -9 °C 34327.3 hPa SW 15.6 km/h 15.6 km/h 89 % 104.14 mm
17:45 -7.9 °C -9 °C 34327.3 hPa NNW 9 km/h 9 km/h 88 % 104.14 mm
17:50 -7.6 °C -8.7 °C 34327.3 hPa WSW 11.9 km/h 11.9 km/h 88 % 104.14 mm
17:55 -7.4 °C -8.7 °C 34327.3 hPa WSW 2.6 km/h 12.9 km/h 87 % 0 mm
18:00 -7.4 °C -8.8 °C 34327.3 hPa WSW 2.6 km/h 7.7 km/h 85 % 0 mm
18:05 -7.2 °C -8.8 °C 34293.4 hPa WSW 6.8 km/h   84 % 160.02 mm
18:10 -7.2 °C -8.8 °C 34293.4 hPa SSE 6 km/h 6 km/h 83 % 160.02 mm
18:15 -7.1 °C -8.8 °C 34293.4 hPa WSW 6 km/h 6.8 km/h 82 % 160.02 mm
18:20 -7.1 °C -8.8 °C 34327.3 hPa SSW 6 km/h 6 km/h 82 % 160.02 mm
18:25 -7 °C -8.8 °C 34327.3 hPa SW 2.6 km/h 12.9 km/h 81 % 0 mm
18:30 -7.1 °C -9 °C 34327.3 hPa SSW 9 km/h 9.3 km/h 81 % 58.42 mm
18:35 -7.1 °C -9 °C 34293.4 hPa SW 11.9 km/h 11.9 km/h 81 % 58.42 mm
18:40 -7.3 °C -9 °C 34293.4 hPa SW 14 km/h 14 km/h 83 % 58.42 mm
18:45 -7.3 °C -9 °C 34293.4 hPa WSW 17.9 km/h 17.9 km/h 83 % 58.42 mm
18:50 -7.5 °C -9.1 °C 34327.3 hPa SSW 11.9 km/h 11.9 km/h 83 % 58.42 mm
18:55 -7.5 °C -9.1 °C 34327.3 hPa SW 9 km/h 9 km/h 83 % 58.42 mm
19:00 -7.5 °C -9.1 °C 34327.3 hPa SW 9 km/h 9 km/h 83 % 58.42 mm
19:05 -7.5 °C -9.1 °C 34293.4 hPa SW 12.7 km/h 12.7 km/h 83 % 0 mm
19:15 -7.5 °C -9.1 °C 34293.4 hPa SW 5.1 km/h 12.9 km/h 83 % 0 mm
19:20 -7.6 °C -9.2 °C 34293.4 hPa SW 7.7 km/h 12.9 km/h 83 % 0 mm
19:25 -7.6 °C -9.2 °C 34293.4 hPa SW 9 km/h 9 km/h 83 % 0 mm
19:30 -7.6 °C -9.2 °C 34293.4 hPa WSW 3.1 km/h 3.1 km/h 83 % 0 mm
19:35 -7.6 °C -9.2 °C 34327.3 hPa SW 8 km/h 8 km/h 83 % 0 mm
19:40 -7.6 °C -9.2 °C 34327.3 hPa Calm     83 % 0 mm
19:45 -7.5 °C -9.2 °C 34327.3 hPa SW 6 km/h 6 km/h 82 % 0 mm
19:50 -7.5 °C -9.2 °C 34327.3 hPa SW 6 km/h 6 km/h 82 % 0 mm
19:55 -7.4 °C -9.2 °C 34327.3 hPa WSW 9 km/h 9 km/h 82 % 0 mm
20:00 -7.4 °C -9.1 °C 34327.3 hPa SW 9 km/h 9 km/h 82 % 0 mm
20:05 -7.3 °C -9.1 °C 34327.3 hPa SW 6 km/h 6 km/h 82 % 0 mm
20:10 -7.3 °C -9.1 °C 34327.3 hPa WSW 6 km/h 6 km/h 81 % 0 mm
20:15 -7.3 °C -9.1 °C 34327.3 hPa SW 6 km/h 6 km/h 81 % 0 mm
20:20 -7.2 °C -9.3 °C 34293.4 hPa SW 6 km/h 6 km/h 79 % 0 mm
20:25 -7.2 °C -9.3 °C 34293.4 hPa SW 6.8 km/h 6.8 km/h 78 % 0 mm
20:30 -7.2 °C -9.5 °C 34293.4 hPa SW 6.3 km/h   77 % 0 mm
20:35 -7.2 °C -9.8 °C 34327.3 hPa SW 9 km/h 9 km/h 75 % 0 mm
20:40 -7.2 °C -9.8 °C 34327.3 hPa SW 3.1 km/h   74 % 0 mm
20:45 -7.2 °C -9.9 °C 34327.3 hPa SW 3.1 km/h   73 % 0 mm
20:50 -7.3 °C -10.1 °C 34361.1 hPa Calm     73 % 0 mm
20:55 -7.3 °C -10.2 °C 34361.1 hPa Calm     72 % 0 mm
21:00 -7.2 °C -10.2 °C 34361.1 hPa ESE 9.8 km/h 9.8 km/h 71 % 0 mm
21:05 -7.4 °C -9.8 °C 34395 hPa ENE 17.9 km/h 17.9 km/h 76 % 0 mm
21:10 -7.7 °C -9.7 °C 34395 hPa NE 27.7 km/h 27.7 km/h 79 % 0 mm
21:15 -7.9 °C -9.7 °C 34395 hPa ESE 29.8 km/h 29.8 km/h 81 % 0 mm
21:20 -8.2 °C -10.1 °C 34395 hPa ENE 16.1 km/h 16.1 km/h 81 % 0 mm
21:25 -8.3 °C -10.2 °C 34395 hPa ENE 16.1 km/h 16.1 km/h 81 % 0 mm
21:30 -8.6 °C -10.3 °C 34395 hPa East 20.9 km/h 20.9 km/h 82 % 0 mm
21:35 -8.8 °C -10.6 °C 34395 hPa East 20.9 km/h 20.9 km/h 81 % 0 mm
21:40 -11.2 °C -15.2 °C 34533.8 hPa WSW 7.7 km/h 18.2 km/h 61 % 0 mm
21:45 -9 °C -10.8 °C 34395 hPa East 7.6 km/h 22 km/h 81 % 0 mm
21:50 -9.1 °C -10.9 °C 34428.8 hPa ENE 25.1 km/h 25.1 km/h 81 % 0 mm
21:55 -9.3 °C -11.1 °C 34428.8 hPa ENE 25.1 km/h 25.1 km/h 81 % 0 mm
22:00 -9.3 °C -11.2 °C 34428.8 hPa ENE 25.1 km/h 25.1 km/h 81 % 0 mm
22:05 -9.4 °C -11.2 °C 34462.7 hPa ENE 25.1 km/h 25.1 km/h 82 % 0 mm
22:10 -11.4 °C -15.9 °C 34533.8 hPa West 7.7 km/h 15.6 km/h 57 % 0 mm
22:11 -9.6 °C -11.2 °C 34462.7 hPa ENE 25.1 km/h 25.1 km/h 82 % 0 mm
22:16 -9.6 °C -11.3 °C 34462.7 hPa ENE 25.1 km/h 25.1 km/h 82 % 0 mm
22:20 -11.4 °C -16 °C 34533.8 hPa WNW 7.7 km/h 10.3 km/h 57 % 0 mm
22:21 -9.7 °C -11.3 °C 34428.8 hPa ENE 25.1 km/h 25.1 km/h 82 % 0 mm
22:26 -9.7 °C -11.3 °C 34428.8 hPa ENE 25.1 km/h 25.1 km/h 83 % 0 mm
22:30 -11.5 °C -16.1 °C 34533.8 hPa SW 7.7 km/h 10.3 km/h 57 % 0 mm
22:31 -9.7 °C -11.3 °C 34428.8 hPa ENE 25.1 km/h 25.1 km/h 83 % 0 mm
22:36 -9.8 °C -11.3 °C 34462.7 hPa ENE 25.1 km/h 25.1 km/h 83 % 0 mm
22:40 -11.6 °C -16.1 °C 34533.8 hPa South 7.7 km/h 10.3 km/h 57 % 0 mm
22:41 -9.8 °C -11.3 °C 34462.7 hPa ENE 25.1 km/h 25.1 km/h 83 % 0 mm
22:46 -9.8 °C -11.4 °C 34462.7 hPa ENE 25.1 km/h 25.1 km/h 83 % 0 mm
22:50 -11.6 °C -16.1 °C 34533.8 hPa ENE 5.1 km/h 15.6 km/h 57 % 0 mm
22:51 -9.8 °C -11.4 °C 34462.7 hPa ENE 25.1 km/h 25.1 km/h 83 % 0 mm
22:56 -9.9 °C -11.5 °C 34462.7 hPa ENE 25.1 km/h 25.1 km/h 83 % 0 mm
23:00 -11.6 °C -16.3 °C 34533.8 hPa WNW 7.7 km/h 15.6 km/h 56 % 0 mm
23:01 -9.9 °C -11.5 °C 34462.7 hPa ENE 25.1 km/h 25.1 km/h 83 % 0 mm
23:06 -9.9 °C -11.5 °C 34496.6 hPa ENE 25.1 km/h 25.1 km/h 83 % 0 mm
23:10 -11.6 °C -16.3 °C 34533.8 hPa West 7.7 km/h 15.6 km/h 56 % 0 mm
23:11 -10 °C -11.5 °C 34496.6 hPa ENE 25.1 km/h 25.1 km/h 84 % 0 mm
23:17 -10.1 °C -11.6 °C 34496.6 hPa ENE 25.1 km/h 25.1 km/h 84 % 0 mm
23:20 -11.6 °C -16.3 °C 34533.8 hPa WNW 7.7 km/h 20.8 km/h 56 % 0 mm
23:22 -10.1 °C -11.6 °C 34462.7 hPa ENE 25.1 km/h 25.1 km/h 84 % 0 mm
23:27 -10.1 °C -11.6 °C 34462.7 hPa ENE 25.1 km/h 25.1 km/h 84 % 0 mm
23:30 -11.7 °C -16.3 °C 34533.8 hPa West 7.7 km/h 15.6 km/h 56 % 0 mm
23:32 -10.2 °C -11.6 °C 34462.7 hPa ENE 25.1 km/h 25.1 km/h 84 % 0 mm
23:37 -10.2 °C -11.7 °C 34496.6 hPa ENE 25.1 km/h 25.1 km/h 84 % 0 mm
23:42 -10.3 °C -11.8 °C 34496.6 hPa ENE 25.1 km/h 25.1 km/h 84 % 0 mm
23:47 -10.3 °C -11.8 °C 34496.6 hPa ENE 25.1 km/h 25.1 km/h 84 % 0 mm
23:50 -11.7 °C -16.5 °C 34533.8 hPa West 12.9 km/h 18.2 km/h 55 % 0 mm
23:52 -10.3 °C -11.7 °C 34496.6 hPa ENE 25.1 km/h 25.1 km/h 85 % 0 mm
23:57 -10.4 °C -11.8 °C 34496.6 hPa ENE 25.1 km/h 25.1 km/h 85 % 0 mm
Meteo Sesrovires
Elogis d' Weather Underground - 2 mb

Guio original per  Jim McMurry - jmcmurry@mwt.net Adaptat per a la plantilla per  Wim van der Kuil - Leuven-Template.eu

Trobareu la nostra informacio del temps tambe a:

Weather Underground

AWEKAS